sensor_id;sensor_type;location;lat;lon;timestamp;P1;durP1;ratioP1;P2;durP2;ratioP2
17361;SDS011;8798;51.938;4.348;2023-04-01T00:00:30;15.10;;;3.77;;
17361;SDS011;8798;51.938;4.348;2023-04-01T00:02:58;16.37;;;3.07;;
17361;SDS011;8798;51.938;4.348;2023-04-01T00:05:26;16.03;;;3.60;;
17361;SDS011;8798;51.938;4.348;2023-04-01T00:07:54;10.60;;;3.20;;
17361;SDS011;8798;51.938;4.348;2023-04-01T00:10:22;14.90;;;3.20;;
17361;SDS011;8798;51.938;4.348;2023-04-01T00:12:51;16.67;;;3.57;;
17361;SDS011;8798;51.938;4.348;2023-04-01T00:15:19;15.07;;;3.00;;
17361;SDS011;8798;51.938;4.348;2023-04-01T00:17:47;20.53;;;3.77;;
17361;SDS011;8798;51.938;4.348;2023-04-01T00:20:15;17.20;;;3.83;;
17361;SDS011;8798;51.938;4.348;2023-04-01T00:22:43;16.77;;;3.80;;
17361;SDS011;8798;51.938;4.348;2023-04-01T00:25:11;15.80;;;3.90;;
17361;SDS011;8798;51.938;4.348;2023-04-01T00:27:39;17.40;;;3.67;;
17361;SDS011;8798;51.938;4.348;2023-04-01T00:30:09;9.70;;;3.17;;
17361;SDS011;8798;51.938;4.348;2023-04-01T00:32:37;16.97;;;4.60;;
17361;SDS011;8798;51.938;4.348;2023-04-01T00:35:06;19.47;;;4.23;;
17361;SDS011;8798;51.938;4.348;2023-04-01T00:37:34;14.23;;;3.50;;
17361;SDS011;8798;51.938;4.348;2023-04-01T00:40:04;12.30;;;3.03;;
17361;SDS011;8798;51.938;4.348;2023-04-01T00:42:34;10.07;;;3.43;;
17361;SDS011;8798;51.938;4.348;2023-04-01T00:47:55;10.47;;;3.40;;
17361;SDS011;8798;51.938;4.348;2023-04-01T00:50:26;13.20;;;3.50;;
17361;SDS011;8798;51.938;4.348;2023-04-01T00:52:56;10.20;;;2.40;;
17361;SDS011;8798;51.938;4.348;2023-04-01T00:55:25;16.17;;;3.10;;
17361;SDS011;8798;51.938;4.348;2023-04-01T00:57:56;7.87;;;2.40;;
17361;SDS011;8798;51.938;4.348;2023-04-01T01:00:27;13.33;;;3.43;;
17361;SDS011;8798;51.938;4.348;2023-04-01T01:02:55;15.30;;;3.37;;
17361;SDS011;8798;51.938;4.348;2023-04-01T01:05:26;9.73;;;2.67;;
17361;SDS011;8798;51.938;4.348;2023-04-01T01:08:15;8.97;;;3.13;;
17361;SDS011;8798;51.938;4.348;2023-04-01T01:10:53;11.67;;;3.33;;
17361;SDS011;8798;51.938;4.348;2023-04-01T01:13:22;10.50;;;3.10;;
17361;SDS011;8798;51.938;4.348;2023-04-01T01:15:57;15.47;;;3.80;;
17361;SDS011;8798;51.938;4.348;2023-04-01T01:18:31;16.67;;;4.00;;
17361;SDS011;8798;51.938;4.348;2023-04-01T01:24:08;13.13;;;3.53;;
17361;SDS011;8798;51.938;4.348;2023-04-01T01:26:49;11.97;;;3.33;;
17361;SDS011;8798;51.938;4.348;2023-04-01T01:35:34;12.63;;;3.80;;
17361;SDS011;8798;51.938;4.348;2023-04-01T01:38:05;11.83;;;3.73;;
17361;SDS011;8798;51.938;4.348;2023-04-01T01:40:35;8.07;;;3.33;;
17361;SDS011;8798;51.938;4.348;2023-04-01T01:43:08;6.27;;;2.80;;
17361;SDS011;8798;51.938;4.348;2023-04-01T01:45:40;6.73;;;2.30;;
17361;SDS011;8798;51.938;4.348;2023-04-01T01:48:13;8.43;;;2.70;;
17361;SDS011;8798;51.938;4.348;2023-04-01T01:50:45;2.33;;;1.40;;
17361;SDS011;8798;51.938;4.348;2023-04-01T01:53:15;6.90;;;2.43;;
17361;SDS011;8798;51.938;4.348;2023-04-01T01:55:44;5.77;;;2.10;;
17361;SDS011;8798;51.938;4.348;2023-04-01T01:58:13;3.40;;;1.73;;
17361;SDS011;8798;51.938;4.348;2023-04-01T02:00:46;7.57;;;2.50;;
17361;SDS011;8798;51.938;4.348;2023-04-01T02:03:18;7.37;;;2.43;;
17361;SDS011;8798;51.938;4.348;2023-04-01T02:05:49;4.03;;;1.43;;
17361;SDS011;8798;51.938;4.348;2023-04-01T02:08:21;7.63;;;2.13;;
17361;SDS011;8798;51.938;4.348;2023-04-01T02:10:52;3.70;;;1.70;;
17361;SDS011;8798;51.938;4.348;2023-04-01T02:13:24;6.53;;;2.37;;
17361;SDS011;8798;51.938;4.348;2023-04-01T02:15:59;6.67;;;2.57;;
17361;SDS011;8798;51.938;4.348;2023-04-01T02:18:31;7.27;;;2.10;;
17361;SDS011;8798;51.938;4.348;2023-04-01T02:21:05;3.50;;;1.80;;
17361;SDS011;8798;51.938;4.348;2023-04-01T02:23:35;4.23;;;1.90;;
17361;SDS011;8798;51.938;4.348;2023-04-01T02:26:04;4.23;;;1.80;;
17361;SDS011;8798;51.938;4.348;2023-04-01T02:28:34;2.83;;;1.30;;
17361;SDS011;8798;51.938;4.348;2023-04-01T02:31:06;2.37;;;1.20;;
17361;SDS011;8798;51.938;4.348;2023-04-01T02:33:36;2.70;;;1.10;;
17361;SDS011;8798;51.938;4.348;2023-04-01T02:36:08;2.63;;;1.20;;
17361;SDS011;8798;51.938;4.348;2023-04-01T02:38:39;2.33;;;0.90;;
17361;SDS011;8798;51.938;4.348;2023-04-01T02:41:08;1.60;;;0.90;;
17361;SDS011;8798;51.938;4.348;2023-04-01T02:43:35;2.90;;;1.27;;
17361;SDS011;8798;51.938;4.348;2023-04-01T02:46:03;3.33;;;1.30;;
17361;SDS011;8798;51.938;4.348;2023-04-01T02:48:31;1.67;;;1.23;;
17361;SDS011;8798;51.938;4.348;2023-04-01T02:50:59;2.60;;;1.30;;
17361;SDS011;8798;51.938;4.348;2023-04-01T02:53:28;6.70;;;2.30;;
17361;SDS011;8798;51.938;4.348;2023-04-01T02:55:56;3.83;;;1.93;;
17361;SDS011;8798;51.938;4.348;2023-04-01T02:58:24;5.63;;;2.30;;
17361;SDS011;8798;51.938;4.348;2023-04-01T03:00:52;7.33;;;2.90;;
17361;SDS011;8798;51.938;4.348;2023-04-01T03:03:20;6.40;;;2.80;;
17361;SDS011;8798;51.938;4.348;2023-04-01T03:05:48;8.50;;;3.30;;
17361;SDS011;8798;51.938;4.348;2023-04-01T03:08:16;11.50;;;3.63;;
17361;SDS011;8798;51.938;4.348;2023-04-01T03:10:45;10.93;;;3.53;;
17361;SDS011;8798;51.938;4.348;2023-04-01T03:13:13;13.40;;;4.83;;
17361;SDS011;8798;51.938;4.348;2023-04-01T03:15:41;15.67;;;4.97;;
17361;SDS011;8798;51.938;4.348;2023-04-01T03:18:08;12.63;;;5.07;;
17361;SDS011;8798;51.938;4.348;2023-04-01T03:20:36;8.47;;;4.07;;
17361;SDS011;8798;51.938;4.348;2023-04-01T03:23:04;18.73;;;5.23;;
17361;SDS011;8798;51.938;4.348;2023-04-01T03:25:32;15.53;;;5.27;;
17361;SDS011;8798;51.938;4.348;2023-04-01T03:28:01;15.23;;;5.70;;
17361;SDS011;8798;51.938;4.348;2023-04-01T03:30:30;16.23;;;6.00;;
17361;SDS011;8798;51.938;4.348;2023-04-01T03:32:58;18.83;;;5.83;;
17361;SDS011;8798;51.938;4.348;2023-04-01T03:35:26;15.53;;;5.17;;
17361;SDS011;8798;51.938;4.348;2023-04-01T03:37:55;14.67;;;4.97;;
17361;SDS011;8798;51.938;4.348;2023-04-01T03:40:23;12.67;;;4.47;;
17361;SDS011;8798;51.938;4.348;2023-04-01T03:42:52;17.73;;;6.00;;
17361;SDS011;8798;51.938;4.348;2023-04-01T03:45:21;15.07;;;5.00;;
17361;SDS011;8798;51.938;4.348;2023-04-01T03:47:49;17.07;;;5.17;;
17361;SDS011;8798;51.938;4.348;2023-04-01T03:50:17;12.13;;;5.40;;
17361;SDS011;8798;51.938;4.348;2023-04-01T03:52:45;16.50;;;6.33;;
17361;SDS011;8798;51.938;4.348;2023-04-01T03:55:13;9.50;;;3.53;;
17361;SDS011;8798;51.938;4.348;2023-04-01T03:57:41;16.00;;;5.70;;
17361;SDS011;8798;51.938;4.348;2023-04-01T04:00:10;15.43;;;5.20;;
17361;SDS011;8798;51.938;4.348;2023-04-01T04:02:40;15.00;;;6.10;;
17361;SDS011;8798;51.938;4.348;2023-04-01T04:05:08;14.13;;;5.13;;
17361;SDS011;8798;51.938;4.348;2023-04-01T04:07:36;14.70;;;5.77;;
17361;SDS011;8798;51.938;4.348;2023-04-01T04:10:04;13.00;;;5.87;;
17361;SDS011;8798;51.938;4.348;2023-04-01T04:12:32;17.03;;;5.47;;
17361;SDS011;8798;51.938;4.348;2023-04-01T04:15:00;17.60;;;6.17;;
17361;SDS011;8798;51.938;4.348;2023-04-01T04:17:28;14.93;;;5.33;;
17361;SDS011;8798;51.938;4.348;2023-04-01T04:19:57;9.47;;;4.20;;
17361;SDS011;8798;51.938;4.348;2023-04-01T04:22:25;9.27;;;4.23;;
17361;SDS011;8798;51.938;4.348;2023-04-01T04:24:53;7.67;;;4.07;;
17361;SDS011;8798;51.938;4.348;2023-04-01T04:27:21;7.73;;;3.83;;
17361;SDS011;8798;51.938;4.348;2023-04-01T04:29:49;9.43;;;4.40;;
17361;SDS011;8798;51.938;4.348;2023-04-01T04:32:17;7.77;;;4.23;;
17361;SDS011;8798;51.938;4.348;2023-04-01T04:34:44;10.80;;;4.70;;
17361;SDS011;8798;51.938;4.348;2023-04-01T04:37:13;9.40;;;4.80;;
17361;SDS011;8798;51.938;4.348;2023-04-01T04:39:41;9.63;;;4.00;;
17361;SDS011;8798;51.938;4.348;2023-04-01T04:42:09;10.07;;;4.53;;
17361;SDS011;8798;51.938;4.348;2023-04-01T04:44:37;12.50;;;4.93;;
17361;SDS011;8798;51.938;4.348;2023-04-01T04:47:06;8.80;;;3.70;;
17361;SDS011;8798;51.938;4.348;2023-04-01T04:49:33;10.10;;;4.60;;
17361;SDS011;8798;51.938;4.348;2023-04-01T04:52:01;7.97;;;3.87;;
17361;SDS011;8798;51.938;4.348;2023-04-01T04:54:31;13.23;;;5.03;;
17361;SDS011;8798;51.938;4.348;2023-04-01T04:56:58;8.73;;;4.60;;
17361;SDS011;8798;51.938;4.348;2023-04-01T04:59:26;11.93;;;5.43;;
17361;SDS011;8798;51.938;4.348;2023-04-01T05:01:54;11.73;;;4.90;;
17361;SDS011;8798;51.938;4.348;2023-04-01T05:04:22;9.80;;;4.63;;
17361;SDS011;8798;51.938;4.348;2023-04-01T05:06:49;13.20;;;5.37;;
17361;SDS011;8798;51.938;4.348;2023-04-01T05:09:18;13.07;;;5.63;;
17361;SDS011;8798;51.938;4.348;2023-04-01T05:11:47;8.47;;;4.53;;
17361;SDS011;8798;51.938;4.348;2023-04-01T05:14:17;9.70;;;5.00;;
17361;SDS011;8798;51.938;4.348;2023-04-01T05:16:45;11.47;;;5.13;;
17361;SDS011;8798;51.938;4.348;2023-04-01T05:19:13;13.80;;;5.33;;
17361;SDS011;8798;51.938;4.348;2023-04-01T05:21:40;10.60;;;4.20;;
17361;SDS011;8798;51.938;4.348;2023-04-01T05:24:08;10.77;;;5.10;;
17361;SDS011;8798;51.938;4.348;2023-04-01T05:26:36;11.03;;;4.93;;
17361;SDS011;8798;51.938;4.348;2023-04-01T05:29:05;11.07;;;5.13;;
17361;SDS011;8798;51.938;4.348;2023-04-01T05:31:33;11.37;;;5.03;;
17361;SDS011;8798;51.938;4.348;2023-04-01T05:34:01;11.93;;;5.17;;
17361;SDS011;8798;51.938;4.348;2023-04-01T05:36:29;11.13;;;5.10;;
17361;SDS011;8798;51.938;4.348;2023-04-01T05:38:56;7.33;;;4.37;;
17361;SDS011;8798;51.938;4.348;2023-04-01T05:41:24;9.33;;;4.30;;
17361;SDS011;8798;51.938;4.348;2023-04-01T05:43:52;12.33;;;5.03;;
17361;SDS011;8798;51.938;4.348;2023-04-01T05:46:22;9.43;;;4.20;;
17361;SDS011;8798;51.938;4.348;2023-04-01T05:48:53;9.70;;;4.00;;
17361;SDS011;8798;51.938;4.348;2023-04-01T05:51:20;9.40;;;4.67;;
17361;SDS011;8798;51.938;4.348;2023-04-01T05:53:48;11.03;;;4.93;;
17361;SDS011;8798;51.938;4.348;2023-04-01T05:56:16;12.37;;;4.60;;
17361;SDS011;8798;51.938;4.348;2023-04-01T05:58:45;11.80;;;4.70;;
17361;SDS011;8798;51.938;4.348;2023-04-01T06:01:17;9.63;;;4.27;;
17361;SDS011;8798;51.938;4.348;2023-04-01T06:03:47;9.50;;;4.80;;
17361;SDS011;8798;51.938;4.348;2023-04-01T06:06:16;13.30;;;5.70;;
17361;SDS011;8798;51.938;4.348;2023-04-01T06:08:50;13.00;;;5.93;;
17361;SDS011;8798;51.938;4.348;2023-04-01T06:11:22;12.73;;;6.00;;
17361;SDS011;8798;51.938;4.348;2023-04-01T06:14:07;9.80;;;4.90;;
17361;SDS011;8798;51.938;4.348;2023-04-01T06:16:48;12.33;;;5.50;;
17361;SDS011;8798;51.938;4.348;2023-04-01T06:19:29;11.67;;;5.93;;
17361;SDS011;8798;51.938;4.348;2023-04-01T06:22:11;13.53;;;5.83;;
17361;SDS011;8798;51.938;4.348;2023-04-01T06:24:53;14.83;;;6.30;;
17361;SDS011;8798;51.938;4.348;2023-04-01T06:27:40;13.87;;;6.50;;
17361;SDS011;8798;51.938;4.348;2023-04-01T06:30:21;10.70;;;5.47;;
17361;SDS011;8798;51.938;4.348;2023-04-01T06:33:08;15.80;;;6.20;;
17361;SDS011;8798;51.938;4.348;2023-04-01T06:35:54;18.27;;;6.33;;
17361;SDS011;8798;51.938;4.348;2023-04-01T06:38:39;19.77;;;7.23;;
17361;SDS011;8798;51.938;4.348;2023-04-01T06:41:38;15.03;;;6.47;;
17361;SDS011;8798;51.938;4.348;2023-04-01T06:44:23;13.60;;;7.23;;
17361;SDS011;8798;51.938;4.348;2023-04-01T06:47:01;16.23;;;6.07;;
17361;SDS011;8798;51.938;4.348;2023-04-01T06:49:41;14.47;;;6.83;;
17361;SDS011;8798;51.938;4.348;2023-04-01T06:52:19;14.13;;;6.00;;
17361;SDS011;8798;51.938;4.348;2023-04-01T06:54:53;14.00;;;5.57;;
17361;SDS011;8798;51.938;4.348;2023-04-01T06:57:29;11.97;;;5.17;;
17361;SDS011;8798;51.938;4.348;2023-04-01T07:00:02;10.57;;;4.13;;
17361;SDS011;8798;51.938;4.348;2023-04-01T07:02:41;5.03;;;3.03;;
17361;SDS011;8798;51.938;4.348;2023-04-01T07:05:12;5.13;;;3.17;;
17361;SDS011;8798;51.938;4.348;2023-04-01T07:07:45;5.73;;;2.77;;
17361;SDS011;8798;51.938;4.348;2023-04-01T07:10:17;5.87;;;2.53;;
17361;SDS011;8798;51.938;4.348;2023-04-01T07:12:50;7.07;;;2.40;;
17361;SDS011;8798;51.938;4.348;2023-04-01T07:15:24;5.00;;;2.77;;
17361;SDS011;8798;51.938;4.348;2023-04-01T07:17:56;8.60;;;2.90;;
17361;SDS011;8798;51.938;4.348;2023-04-01T07:20:30;4.77;;;2.40;;
17361;SDS011;8798;51.938;4.348;2023-04-01T07:23:01;3.57;;;2.30;;
17361;SDS011;8798;51.938;4.348;2023-04-01T07:25:33;2.70;;;2.00;;
17361;SDS011;8798;51.938;4.348;2023-04-01T07:28:04;5.30;;;2.20;;
17361;SDS011;8798;51.938;4.348;2023-04-01T07:30:40;2.73;;;1.80;;
17361;SDS011;8798;51.938;4.348;2023-04-01T07:33:15;3.83;;;1.70;;
17361;SDS011;8798;51.938;4.348;2023-04-01T07:35:48;3.17;;;1.60;;
17361;SDS011;8798;51.938;4.348;2023-04-01T07:38:26;2.27;;;1.40;;
17361;SDS011;8798;51.938;4.348;2023-04-01T07:41:04;1.10;;;0.90;;
17361;SDS011;8798;51.938;4.348;2023-04-01T07:43:48;2.57;;;1.10;;
17361;SDS011;8798;51.938;4.348;2023-04-01T07:46:27;2.47;;;1.70;;
17361;SDS011;8798;51.938;4.348;2023-04-01T07:49:07;4.03;;;2.00;;
17361;SDS011;8798;51.938;4.348;2023-04-01T07:51:42;3.60;;;2.60;;
17361;SDS011;8798;51.938;4.348;2023-04-01T07:54:18;3.87;;;2.00;;
17361;SDS011;8798;51.938;4.348;2023-04-01T07:56:53;4.13;;;2.13;;
17361;SDS011;8798;51.938;4.348;2023-04-01T07:59:26;4.93;;;2.40;;
17361;SDS011;8798;51.938;4.348;2023-04-01T08:02:03;3.93;;;2.20;;
17361;SDS011;8798;51.938;4.348;2023-04-01T08:04:41;6.10;;;2.40;;
17361;SDS011;8798;51.938;4.348;2023-04-01T08:07:20;5.00;;;2.87;;
17361;SDS011;8798;51.938;4.348;2023-04-01T08:09:55;3.77;;;2.03;;
17361;SDS011;8798;51.938;4.348;2023-04-01T08:12:32;6.47;;;2.70;;
17361;SDS011;8798;51.938;4.348;2023-04-01T08:15:11;6.30;;;2.87;;
17361;SDS011;8798;51.938;4.348;2023-04-01T08:17:52;6.47;;;3.90;;
17361;SDS011;8798;51.938;4.348;2023-04-01T08:20:33;6.07;;;3.13;;
17361;SDS011;8798;51.938;4.348;2023-04-01T08:23:06;8.50;;;3.60;;
17361;SDS011;8798;51.938;4.348;2023-04-01T08:25:40;9.30;;;3.90;;
17361;SDS011;8798;51.938;4.348;2023-04-01T08:28:15;10.50;;;4.23;;
17361;SDS011;8798;51.938;4.348;2023-04-01T08:30:47;7.53;;;3.23;;
17361;SDS011;8798;51.938;4.348;2023-04-01T08:33:21;6.63;;;3.83;;
17361;SDS011;8798;51.938;4.348;2023-04-01T08:35:52;8.93;;;3.90;;
17361;SDS011;8798;51.938;4.348;2023-04-01T08:38:26;7.83;;;3.93;;
17361;SDS011;8798;51.938;4.348;2023-04-01T08:41:05;9.00;;;3.90;;
17361;SDS011;8798;51.938;4.348;2023-04-01T08:46:53;11.00;;;4.40;;
17361;SDS011;8798;51.938;4.348;2023-04-01T08:52:49;6.77;;;3.50;;
17361;SDS011;8798;51.938;4.348;2023-04-01T08:55:30;8.43;;;4.30;;
17361;SDS011;8798;51.938;4.348;2023-04-01T09:01:05;8.00;;;3.53;;
17361;SDS011;8798;51.938;4.348;2023-04-01T09:03:44;16.33;;;5.57;;
17361;SDS011;8798;51.938;4.348;2023-04-01T09:06:31;12.47;;;4.50;;
17361;SDS011;8798;51.938;4.348;2023-04-01T09:09:11;11.07;;;4.30;;
17361;SDS011;8798;51.938;4.348;2023-04-01T09:14:59;10.77;;;3.83;;
17361;SDS011;8798;51.938;4.348;2023-04-01T09:18:13;10.23;;;4.10;;
17361;SDS011;8798;51.938;4.348;2023-04-01T09:21:09;8.57;;;3.73;;
17361;SDS011;8798;51.938;4.348;2023-04-01T09:24:02;6.77;;;3.03;;
17361;SDS011;8798;51.938;4.348;2023-04-01T09:26:52;10.30;;;3.33;;
17361;SDS011;8798;51.938;4.348;2023-04-01T09:29:37;11.07;;;3.90;;
17361;SDS011;8798;51.938;4.348;2023-04-01T09:32:23;9.93;;;4.30;;
17361;SDS011;8798;51.938;4.348;2023-04-01T09:35:07;7.93;;;3.90;;
17361;SDS011;8798;51.938;4.348;2023-04-01T09:37:52;8.77;;;3.37;;
17361;SDS011;8798;51.938;4.348;2023-04-01T09:40:30;9.03;;;4.27;;
17361;SDS011;8798;51.938;4.348;2023-04-01T09:46:11;7.13;;;3.63;;
17361;SDS011;8798;51.938;4.348;2023-04-01T09:49:09;7.73;;;3.83;;
17361;SDS011;8798;51.938;4.348;2023-04-01T09:51:54;8.20;;;4.37;;
17361;SDS011;8798;51.938;4.348;2023-04-01T09:54:42;8.23;;;4.17;;
17361;SDS011;8798;51.938;4.348;2023-04-01T10:00:30;8.37;;;3.37;;
17361;SDS011;8798;51.938;4.348;2023-04-01T10:03:28;8.93;;;3.90;;
17361;SDS011;8798;51.938;4.348;2023-04-01T10:06:41;6.60;;;3.40;;
17361;SDS011;8798;51.938;4.348;2023-04-01T10:15:26;6.40;;;3.80;;
17361;SDS011;8798;51.938;4.348;2023-04-01T10:18:24;9.17;;;4.03;;
17361;SDS011;8798;51.938;4.348;2023-04-01T10:21:16;7.97;;;3.90;;
17361;SDS011;8798;51.938;4.348;2023-04-01T10:24:21;6.97;;;3.47;;
17361;SDS011;8798;51.938;4.348;2023-04-01T10:27:16;6.97;;;3.20;;
17361;SDS011;8798;51.938;4.348;2023-04-01T10:30:05;9.20;;;3.40;;
17361;SDS011;8798;51.938;4.348;2023-04-01T10:36:10;7.17;;;3.27;;
17361;SDS011;8798;51.938;4.348;2023-04-01T10:39:08;5.53;;;2.93;;
17361;SDS011;8798;51.938;4.348;2023-04-01T10:48:20;8.30;;;3.60;;
17361;SDS011;8798;51.938;4.348;2023-04-01T10:51:13;9.70;;;4.60;;
17361;SDS011;8798;51.938;4.348;2023-04-01T10:56:49;9.73;;;3.97;;
17361;SDS011;8798;51.938;4.348;2023-04-01T11:02:48;10.90;;;3.73;;
17361;SDS011;8798;51.938;4.348;2023-04-01T11:15:23;10.17;;;4.40;;
17361;SDS011;8798;51.938;4.348;2023-04-01T11:21:08;10.43;;;4.50;;
17361;SDS011;8798;51.938;4.348;2023-04-01T11:24:03;13.80;;;5.03;;
17361;SDS011;8798;51.938;4.348;2023-04-01T11:26:50;10.07;;;4.70;;
17361;SDS011;8798;51.938;4.348;2023-04-01T11:38:19;13.30;;;4.77;;
17361;SDS011;8798;51.938;4.348;2023-04-01T11:41:02;10.33;;;4.77;;
17361;SDS011;8798;51.938;4.348;2023-04-01T11:43:51;11.43;;;5.03;;
17361;SDS011;8798;51.938;4.348;2023-04-01T11:46:33;10.43;;;4.67;;
17361;SDS011;8798;51.938;4.348;2023-04-01T11:49:13;10.37;;;4.77;;
17361;SDS011;8798;51.938;4.348;2023-04-01T11:51:57;9.87;;;4.47;;
17361;SDS011;8798;51.938;4.348;2023-04-01T11:54:47;10.63;;;5.43;;
17361;SDS011;8798;51.938;4.348;2023-04-01T11:57:42;9.83;;;4.60;;
17361;SDS011;8798;51.938;4.348;2023-04-01T12:00:21;15.10;;;5.83;;
17361;SDS011;8798;51.938;4.348;2023-04-01T12:03:08;11.17;;;4.37;;
17361;SDS011;8798;51.938;4.348;2023-04-01T12:05:49;9.37;;;4.10;;
17361;SDS011;8798;51.938;4.348;2023-04-01T12:08:25;9.33;;;4.50;;
17361;SDS011;8798;51.938;4.348;2023-04-01T12:11:06;8.17;;;4.70;;
17361;SDS011;8798;51.938;4.348;2023-04-01T12:13:43;7.53;;;4.10;;
17361;SDS011;8798;51.938;4.348;2023-04-01T12:16:23;8.30;;;3.80;;
17361;SDS011;8798;51.938;4.348;2023-04-01T12:19:02;7.67;;;3.53;;
17361;SDS011;8798;51.938;4.348;2023-04-01T12:21:36;9.47;;;4.10;;
17361;SDS011;8798;51.938;4.348;2023-04-01T12:24:18;7.03;;;3.27;;
17361;SDS011;8798;51.938;4.348;2023-04-01T12:27:01;8.63;;;3.63;;
17361;SDS011;8798;51.938;4.348;2023-04-01T12:29:44;8.97;;;3.90;;
17361;SDS011;8798;51.938;4.348;2023-04-01T12:32:26;8.50;;;3.67;;
17361;SDS011;8798;51.938;4.348;2023-04-01T12:35:18;7.07;;;3.97;;
17361;SDS011;8798;51.938;4.348;2023-04-01T12:38:04;9.90;;;4.00;;
17361;SDS011;8798;51.938;4.348;2023-04-01T12:47:04;8.87;;;3.93;;
17361;SDS011;8798;51.938;4.348;2023-04-01T12:49:56;11.87;;;4.23;;
17361;SDS011;8798;51.938;4.348;2023-04-01T12:52:47;11.97;;;5.33;;
17361;SDS011;8798;51.938;4.348;2023-04-01T12:55:36;11.50;;;4.70;;
17361;SDS011;8798;51.938;4.348;2023-04-01T13:01:21;9.20;;;4.17;;
17361;SDS011;8798;51.938;4.348;2023-04-01T13:04:02;10.17;;;3.60;;
17361;SDS011;8798;51.938;4.348;2023-04-01T13:06:51;9.20;;;4.00;;
17361;SDS011;8798;51.938;4.348;2023-04-01T13:09:34;6.43;;;3.37;;
17361;SDS011;8798;51.938;4.348;2023-04-01T13:12:19;6.63;;;3.70;;
17361;SDS011;8798;51.938;4.348;2023-04-01T13:15:10;9.00;;;3.63;;
17361;SDS011;8798;51.938;4.348;2023-04-01T13:17:45;9.10;;;3.47;;
17361;SDS011;8798;51.938;4.348;2023-04-01T13:20:23;5.57;;;3.17;;
17361;SDS011;8798;51.938;4.348;2023-04-01T13:23:05;7.57;;;3.47;;
17361;SDS011;8798;51.938;4.348;2023-04-01T13:25:39;7.77;;;4.17;;
17361;SDS011;8798;51.938;4.348;2023-04-01T13:28:23;9.00;;;3.70;;
17361;SDS011;8798;51.938;4.348;2023-04-01T13:30:55;8.90;;;3.10;;
17361;SDS011;8798;51.938;4.348;2023-04-01T13:33:30;7.97;;;3.63;;
17361;SDS011;8798;51.938;4.348;2023-04-01T13:36:13;9.30;;;3.70;;
17361;SDS011;8798;51.938;4.348;2023-04-01T13:38:48;10.97;;;3.97;;
17361;SDS011;8798;51.938;4.348;2023-04-01T13:41:38;9.80;;;3.50;;
17361;SDS011;8798;51.938;4.348;2023-04-01T13:44:22;8.83;;;3.33;;
17361;SDS011;8798;51.938;4.348;2023-04-01T13:47:02;8.87;;;3.00;;
17361;SDS011;8798;51.938;4.348;2023-04-01T13:49:46;8.43;;;3.17;;
17361;SDS011;8798;51.938;4.348;2023-04-01T13:52:32;5.43;;;2.07;;
17361;SDS011;8798;51.938;4.348;2023-04-01T13:55:21;4.97;;;2.10;;
17361;SDS011;8798;51.938;4.348;2023-04-01T13:58:03;4.33;;;2.20;;
17361;SDS011;8798;51.938;4.348;2023-04-01T14:00:46;7.00;;;2.13;;
17361;SDS011;8798;51.938;4.348;2023-04-01T14:03:40;5.27;;;2.17;;
17361;SDS011;8798;51.938;4.348;2023-04-01T14:06:31;5.97;;;2.37;;
17361;SDS011;8798;51.938;4.348;2023-04-01T14:12:21;12.03;;;2.87;;
17361;SDS011;8798;51.938;4.348;2023-04-01T14:15:15;6.20;;;2.27;;
17361;SDS011;8798;51.938;4.348;2023-04-01T14:18:18;8.10;;;2.80;;
17361;SDS011;8798;51.938;4.348;2023-04-01T14:20:58;10.83;;;2.90;;
17361;SDS011;8798;51.938;4.348;2023-04-01T14:23:48;5.53;;;2.63;;
17361;SDS011;8798;51.938;4.348;2023-04-01T14:26:31;5.23;;;2.53;;
17361;SDS011;8798;51.938;4.348;2023-04-01T14:29:22;5.97;;;2.57;;
17361;SDS011;8798;51.938;4.348;2023-04-01T14:32:02;3.53;;;2.50;;
17361;SDS011;8798;51.938;4.348;2023-04-01T14:34:40;4.00;;;2.20;;
17361;SDS011;8798;51.938;4.348;2023-04-01T14:37:23;7.00;;;2.40;;
17361;SDS011;8798;51.938;4.348;2023-04-01T14:42:58;10.10;;;2.70;;
17361;SDS011;8798;51.938;4.348;2023-04-01T14:45:49;5.37;;;2.30;;
17361;SDS011;8798;51.938;4.348;2023-04-01T14:48:28;8.07;;;2.83;;
17361;SDS011;8798;51.938;4.348;2023-04-01T14:51:02;5.70;;;2.87;;
17361;SDS011;8798;51.938;4.348;2023-04-01T14:53:37;5.73;;;3.03;;
17361;SDS011;8798;51.938;4.348;2023-04-01T14:56:11;5.97;;;3.03;;
17361;SDS011;8798;51.938;4.348;2023-04-01T14:58:43;7.00;;;3.03;;
17361;SDS011;8798;51.938;4.348;2023-04-01T15:01:30;6.73;;;3.60;;
17361;SDS011;8798;51.938;4.348;2023-04-01T15:04:14;6.83;;;3.37;;
17361;SDS011;8798;51.938;4.348;2023-04-01T15:07:03;8.63;;;3.17;;
17361;SDS011;8798;51.938;4.348;2023-04-01T15:09:47;12.20;;;3.77;;
17361;SDS011;8798;51.938;4.348;2023-04-01T15:12:24;11.63;;;2.83;;
17361;SDS011;8798;51.938;4.348;2023-04-01T15:15:01;6.20;;;3.03;;
17361;SDS011;8798;51.938;4.348;2023-04-01T15:17:43;12.90;;;3.20;;
17361;SDS011;8798;51.938;4.348;2023-04-01T15:20:25;14.20;;;3.13;;
17361;SDS011;8798;51.938;4.348;2023-04-01T15:23:15;11.90;;;2.97;;
17361;SDS011;8798;51.938;4.348;2023-04-01T15:26:11;12.50;;;2.67;;
17361;SDS011;8798;51.938;4.348;2023-04-01T15:28:49;9.43;;;2.47;;
17361;SDS011;8798;51.938;4.348;2023-04-01T15:31:31;7.97;;;2.60;;
17361;SDS011;8798;51.938;4.348;2023-04-01T15:34:20;14.20;;;3.57;;
17361;SDS011;8798;51.938;4.348;2023-04-01T15:37:00;8.13;;;2.57;;
17361;SDS011;8798;51.938;4.348;2023-04-01T15:39:42;11.30;;;2.20;;
17361;SDS011;8798;51.938;4.348;2023-04-01T15:42:24;9.50;;;2.73;;
17361;SDS011;8798;51.938;4.348;2023-04-01T15:45:05;9.97;;;2.50;;
17361;SDS011;8798;51.938;4.348;2023-04-01T15:47:44;10.83;;;2.73;;
17361;SDS011;8798;51.938;4.348;2023-04-01T15:50:25;8.07;;;2.60;;
17361;SDS011;8798;51.938;4.348;2023-04-01T15:55:59;9.30;;;3.13;;
17361;SDS011;8798;51.938;4.348;2023-04-01T15:58:44;7.70;;;3.13;;
17361;SDS011;8798;51.938;4.348;2023-04-01T16:01:26;7.43;;;2.73;;
17361;SDS011;8798;51.938;4.348;2023-04-01T16:04:08;6.43;;;2.87;;
17361;SDS011;8798;51.938;4.348;2023-04-01T16:06:52;11.20;;;3.20;;
17361;SDS011;8798;51.938;4.348;2023-04-01T16:09:36;10.10;;;3.07;;
17361;SDS011;8798;51.938;4.348;2023-04-01T16:12:28;11.20;;;3.10;;
17361;SDS011;8798;51.938;4.348;2023-04-01T16:15:11;6.67;;;2.90;;
17361;SDS011;8798;51.938;4.348;2023-04-01T16:17:54;12.83;;;3.17;;
17361;SDS011;8798;51.938;4.348;2023-04-01T16:20:39;10.47;;;2.50;;
17361;SDS011;8798;51.938;4.348;2023-04-01T16:23:18;9.23;;;2.70;;
17361;SDS011;8798;51.938;4.348;2023-04-01T16:25:52;7.40;;;2.47;;
17361;SDS011;8798;51.938;4.348;2023-04-01T16:28:27;8.27;;;2.77;;
17361;SDS011;8798;51.938;4.348;2023-04-01T16:31:03;7.17;;;2.47;;
17361;SDS011;8798;51.938;4.348;2023-04-01T16:33:39;9.10;;;2.57;;
17361;SDS011;8798;51.938;4.348;2023-04-01T16:36:20;9.00;;;2.70;;
17361;SDS011;8798;51.938;4.348;2023-04-01T16:39:02;8.77;;;2.70;;
17361;SDS011;8798;51.938;4.348;2023-04-01T16:41:41;7.93;;;2.63;;
17361;SDS011;8798;51.938;4.348;2023-04-01T16:44:17;5.90;;;2.23;;
17361;SDS011;8798;51.938;4.348;2023-04-01T16:46:48;5.97;;;2.27;;
17361;SDS011;8798;51.938;4.348;2023-04-01T16:49:24;7.60;;;2.37;;
17361;SDS011;8798;51.938;4.348;2023-04-01T16:51:59;11.23;;;3.10;;
17361;SDS011;8798;51.938;4.348;2023-04-01T16:54:43;7.87;;;2.90;;
17361;SDS011;8798;51.938;4.348;2023-04-01T16:57:17;5.70;;;2.80;;
17361;SDS011;8798;51.938;4.348;2023-04-01T16:59:48;5.67;;;2.60;;
17361;SDS011;8798;51.938;4.348;2023-04-01T17:02:25;13.23;;;4.90;;
17361;SDS011;8798;51.938;4.348;2023-04-01T17:04:58;7.53;;;3.43;;
17361;SDS011;8798;51.938;4.348;2023-04-01T17:07:35;5.73;;;2.53;;
17361;SDS011;8798;51.938;4.348;2023-04-01T17:10:18;7.83;;;3.07;;
17361;SDS011;8798;51.938;4.348;2023-04-01T17:12:58;7.67;;;3.13;;
17361;SDS011;8798;51.938;4.348;2023-04-01T17:15:43;5.90;;;2.40;;
17361;SDS011;8798;51.938;4.348;2023-04-01T17:18:20;4.37;;;2.60;;
17361;SDS011;8798;51.938;4.348;2023-04-01T17:20:58;12.33;;;6.30;;
17361;SDS011;8798;51.938;4.348;2023-04-01T17:23:34;6.20;;;3.13;;
17361;SDS011;8798;51.938;4.348;2023-04-01T17:26:13;5.10;;;3.60;;